Time;durP1;ratioP1;P1;durP2;ratioP2;P2;SDS_P1;SDS_P2;PMS_P1;PMS_P2;Temp;Humidity;BMP_temperature;BMP_pressure;BME280_temperature;BME280_humidity;BME280_pressure;Samples;Min_cycle;Max_cycle;Signal;HPM_P1;HPM_P2
2022/09/18 00:01:07;;;;;;;7.43;4.13;;;8.90;99.90;;;;;;5051881;28;20029;-45
2022/09/18 00:03:32;;;;;;;7.97;4.75;;;8.90;99.90;;;;;;5048999;28;20040;-46
2022/09/18 00:06:08;;;;;;;11.00;5.30;;;8.80;99.90;;;;;;5046096;28;20037;-50
2022/09/18 00:08:33;;;;;;;8.25;3.63;;;8.80;99.90;;;;;;5049829;28;20041;-43
2022/09/18 00:11:06;;;;;;;8.05;3.40;;;8.70;99.90;;;;;;5044754;28;20020;-44
2022/09/18 00:13:34;;;;;;;9.52;3.40;;;8.80;99.90;;;;;;5047625;28;20021;-46
2022/09/18 00:16:00;;;;;;;6.10;3.72;;;8.80;99.90;;;;;;5048913;28;20025;-45
2022/09/18 00:18:26;;;;;;;7.47;3.78;;;8.90;99.90;;;;;;5052251;28;20033;-46
2022/09/18 00:20:51;;;;;;;11.52;4.20;;;8.90;99.90;;;;;;5052850;28;20112;-45
2022/09/18 00:23:17;;;;;;;6.15;3.33;;;9.00;99.90;;;;;;5049429;28;20032;-48
2022/09/18 00:25:43;;;;;;;7.80;3.70;;;9.00;99.90;;;;;;5044980;28;20021;-47
2022/09/18 00:28:08;;;;;;;9.88;3.80;;;9.00;99.90;;;;;;5047618;28;20040;-47
2022/09/18 00:30:34;;;;;;;9.90;4.68;;;8.90;99.90;;;;;;5039890;28;20018;-46
2022/09/18 00:33:00;;;;;;;9.07;4.07;;;8.90;99.90;;;;;;5039791;28;20451;-48
2022/09/18 00:35:25;;;;;;;7.18;3.78;;;8.80;99.90;;;;;;5047362;28;20075;-51
2022/09/18 00:37:51;;;;;;;6.63;3.80;;;8.80;99.90;;;;;;5050267;28;20064;-45
2022/09/18 00:40:17;;;;;;;7.82;3.97;;;8.80;99.90;;;;;;5050987;28;20047;-52
2022/09/18 00:42:43;;;;;;;7.45;3.83;;;8.80;99.90;;;;;;5050491;28;20013;-46
2022/09/18 00:45:09;;;;;;;7.90;3.90;;;8.80;99.90;;;;;;5049478;28;20028;-47
2022/09/18 00:47:44;;;;;;;8.23;4.03;;;8.70;99.90;;;;;;5042832;28;20045;-46
2022/09/18 00:50:17;;;;;;;14.70;4.90;;;8.40;99.90;;;;;;5044045;28;20112;-49
2022/09/18 00:52:45;;;;;;;11.10;3.83;;;8.30;99.90;;;;;;5049257;28;20029;-49
2022/09/18 00:55:12;;;;;;;7.68;4.13;;;8.10;99.90;;;;;;5049564;28;20025;-44
2022/09/18 00:57:43;;;;;;;10.45;4.03;;;8.10;99.90;;;;;;5049040;28;20100;-47
2022/09/18 01:00:10;;;;;;;8.13;3.92;;;8.00;99.90;;;;;;5050717;28;20025;-45
2022/09/18 01:02:38;;;;;;;7.82;3.92;;;8.10;99.90;;;;;;5050077;28;20032;-44
2022/09/18 01:05:04;;;;;;;8.02;4.00;;;8.10;99.90;;;;;;5048391;28;20859;-44
2022/09/18 01:08:06;;;;;;;9.05;4.20;;;8.00;99.90;;;;;;5048494;28;20033;-51
2022/09/18 01:10:47;;;;;;;7.68;3.80;;;7.90;99.90;;;;;;5048663;28;20385;-44
2022/09/18 01:13:44;;;;;;;8.30;3.90;;;7.90;99.90;;;;;;5048617;28;20672;-48
2022/09/18 01:16:31;;;;;;;8.75;3.88;;;7.80;99.90;;;;;;5048816;28;20379;-48
2022/09/18 01:19:27;;;;;;;8.45;3.95;;;7.70;99.90;;;;;;5050984;28;20105;-44
2022/09/18 01:22:04;;;;;;;7.60;4.22;;;7.70;99.90;;;;;;5049190;28;20087;-44
2022/09/18 01:24:53;;;;;;;6.65;4.20;;;7.60;99.90;;;;;;5054707;28;20020;-45
2022/09/18 01:27:40;;;;;;;7.80;4.25;;;7.60;99.90;;;;;;5053942;28;20048;-48
2022/09/18 01:30:08;;;;;;;9.05;3.85;;;7.70;99.90;;;;;;5054855;28;20036;-51
2022/09/18 01:32:46;;;;;;;7.88;4.22;;;7.70;99.90;;;;;;5054127;28;20021;-51
2022/09/18 01:35:20;;;;;;;6.60;3.65;;;7.80;99.90;;;;;;5054407;28;20025;-44
2022/09/18 01:37:58;;;;;;;9.90;4.45;;;7.70;99.90;;;;;;5053375;28;20028;-45
2022/09/18 01:40:46;;;;;;;8.75;4.15;;;7.80;99.90;;;;;;5052180;28;20032;-49
2022/09/18 01:43:15;;;;;;;9.82;3.90;;;7.70;99.90;;;;;;5054138;28;20125;-51
2022/09/18 01:45:43;;;;;;;;;;;7.80;99.90;;;;;;5054305;28;20068;-47
2022/09/18 01:48:15;;;;;;;6.38;3.80;;;7.80;99.90;;;;;;5054060;28;20399;-47
2022/09/18 01:50:46;;;;;;;10.80;3.92;;;7.80;99.90;;;;;;5053772;28;20114;-45
2022/09/18 01:53:26;;;;;;;5.65;3.38;;;7.70;99.90;;;;;;5053753;28;20036;-45
2022/09/18 01:56:01;;;;;;;7.38;3.40;;;7.70;99.90;;;;;;5053871;28;20029;-47
2022/09/18 01:58:28;;;;;;;9.98;4.45;;;7.70;99.90;;;;;;5053979;28;20025;-46
2022/09/18 02:00:58;;;;;;;6.65;3.97;;;7.80;99.90;;;;;;5053511;28;20017;-45
2022/09/18 02:03:32;;;;;;;7.55;3.75;;;7.70;99.90;;;;;;5053860;28;20025;-46
2022/09/18 02:06:05;;;;;;;6.53;3.83;;;7.70;99.90;;;;;;5053515;28;20043;-45
2022/09/18 02:08:37;;;;;;;11.43;4.22;;;7.70;99.90;;;;;;5053353;28;20033;-45
2022/09/18 02:11:12;;;;;;;11.07;3.90;;;7.70;99.90;;;;;;5052155;28;20017;-48
2022/09/18 02:13:43;;;;;;;10.25;4.40;;;7.70;99.90;;;;;;5052303;28;20137;-45
2022/09/18 02:16:16;;;;;;;6.28;3.53;;;7.70;99.90;;;;;;5053556;28;20032;-45
2022/09/18 02:18:45;;;;;;;7.43;4.35;;;7.70;99.90;;;;;;5053793;28;20425;-44
2022/09/18 02:21:15;;;;;;;10.10;4.40;;;7.70;99.90;;;;;;5053407;28;20384;-48
2022/09/18 02:23:41;;;;;;;8.68;3.83;;;7.80;99.90;;;;;;5053309;28;20535;-46
2022/09/18 02:26:08;;;;;;;9.63;4.55;;;7.80;99.90;;;;;;5048971;28;20468;-46
2022/09/18 02:28:35;;;;;;;6.85;3.92;;;7.80;99.90;;;;;;5052282;28;20432;-48
2022/09/18 02:31:01;;;;;;;8.25;4.13;;;7.70;99.90;;;;;;5052320;28;20059;-48
2022/09/18 02:33:35;;;;;;;9.68;4.20;;;7.70;99.90;;;;;;5052729;28;20057;-47
2022/09/18 02:36:19;;;;;;;8.90;4.28;;;7.60;99.90;;;;;;5052882;28;20557;-50
2022/09/18 02:38:47;;;;;;;8.15;3.78;;;7.60;99.90;;;;;;5051429;28;20040;-46
2022/09/18 02:41:47;;;;;;;7.13;4.18;;;7.60;99.90;;;;;;5053129;28;20124;-45
2022/09/18 02:44:31;;;;;;;6.70;3.97;;;7.50;99.90;;;;;;5052360;28;20021;-49
2022/09/18 02:47:01;;;;;;;6.90;3.90;;;7.60;99.90;;;;;;5052307;28;20045;-45
2022/09/18 02:49:57;;;;;;;6.93;3.55;;;7.60;99.90;;;;;;5052789;28;20024;-46
2022/09/18 02:52:28;;;;;;;7.28;3.95;;;7.50;99.90;;;;;;5052631;28;20495;-45
2022/09/18 02:55:01;;;;;;;6.80;3.80;;;7.60;99.90;;;;;;5052510;28;20032;-48
2022/09/18 02:57:45;;;;;;;8.25;4.07;;;7.60;99.90;;;;;;5052532;28;20040;-50
2022/09/18 03:00:15;;;;;;;6.35;3.53;;;7.50;99.90;;;;;;5052879;28;20063;-50
2022/09/18 03:02:42;;;;;;;7.53;3.80;;;7.50;99.90;;;;;;5052100;28;20102;-49
2022/09/18 03:05:08;;;;;;;7.20;3.85;;;7.50;99.90;;;;;;5052530;28;20029;-49
2022/09/18 03:07:34;;;;;;;8.15;4.10;;;7.40;99.90;;;;;;5052345;28;20037;-46
2022/09/18 03:09:59;;;;;;;8.43;4.10;;;7.30;99.90;;;;;;5051159;28;20036;-46
2022/09/18 03:12:25;;;;;;;7.28;4.40;;;7.20;99.90;;;;;;5051907;28;20476;-48
2022/09/18 03:14:50;;;;;;;6.20;3.65;;;7.00;99.90;;;;;;5052424;28;20059;-46
2022/09/18 03:17:16;;;;;;;7.18;3.92;;;6.90;99.90;;;;;;5052387;28;20043;-48
2022/09/18 03:19:43;;;;;;;8.23;4.25;;;6.90;99.90;;;;;;5052266;28;20036;-45
2022/09/18 03:22:10;;;;;;;7.03;3.72;;;6.90;99.90;;;;;;5052108;28;20033;-51
2022/09/18 03:24:36;;;;;;;7.85;3.83;;;6.90;99.90;;;;;;5052122;28;20028;-53
2022/09/18 03:27:02;;;;;;;9.05;4.57;;;7.00;99.90;;;;;;5052394;28;20021;-49
2022/09/18 03:29:27;;;;;;;8.05;3.78;;;7.00;99.90;;;;;;5052117;28;20041;-44
2022/09/18 03:31:53;;;;;;;6.72;3.85;;;7.00;99.90;;;;;;5051965;28;20075;-46
2022/09/18 03:34:19;;;;;;;6.82;3.85;;;7.00;99.90;;;;;;5050788;28;20037;-50
2022/09/18 03:36:45;;;;;;;6.28;3.70;;;7.00;99.90;;;;;;5051928;28;20025;-45
2022/09/18 03:39:12;;;;;;;6.55;4.07;;;7.10;99.90;;;;;;5052021;28;20798;-50
2022/09/18 03:41:38;;;;;;;8.13;3.60;;;7.10;99.90;;;;;;5051613;28;20155;-53
2022/09/18 03:44:03;;;;;;;6.95;3.58;;;7.10;99.90;;;;;;5051755;28;20388;-44
2022/09/18 03:46:29;;;;;;;6.72;3.63;;;7.20;99.90;;;;;;5051533;28;20037;-44
2022/09/18 03:48:55;;;;;;;6.22;3.53;;;7.20;99.90;;;;;;5051553;28;20025;-43
2022/09/18 03:51:20;;;;;;;7.07;3.65;;;7.20;99.90;;;;;;5051523;28;20505;-44
2022/09/18 03:53:47;;;;;;;6.47;3.65;;;7.20;99.90;;;;;;5051489;28;20036;-48
2022/09/18 03:56:14;;;;;;;7.57;3.83;;;7.20;99.90;;;;;;5051534;28;20487;-45
2022/09/18 03:58:40;;;;;;;7.10;3.58;;;7.20;99.90;;;;;;5051534;28;20378;-44
2022/09/18 04:01:06;;;;;;;9.40;3.72;;;7.10;99.90;;;;;;5051356;28;20032;-46
2022/09/18 04:03:32;;;;;;;6.60;3.60;;;6.90;99.90;;;;;;5051471;28;20029;-51
2022/09/18 04:05:58;;;;;;;8.55;3.95;;;6.70;99.90;;;;;;5051394;28;20013;-46
2022/09/18 04:08:24;;;;;;;6.40;3.38;;;6.60;99.90;;;;;;5051223;28;20073;-50
2022/09/18 04:10:50;;;;;;;7.97;3.88;;;6.50;99.90;;;;;;5050941;28;20412;-44
2022/09/18 04:13:15;;;;;;;5.63;3.30;;;6.40;99.90;;;;;;5051411;28;20039;-47
2022/09/18 04:15:43;;;;;;;6.65;3.67;;;6.40;99.90;;;;;;5040554;28;20022;-48
2022/09/18 04:18:10;;;;;;;6.57;3.80;;;6.50;99.90;;;;;;5050243;28;20017;-46
2022/09/18 04:20:36;;;;;;;7.93;4.03;;;6.40;99.90;;;;;;5050811;28;20025;-47
2022/09/18 04:23:02;;;;;;;7.63;4.15;;;6.40;99.90;;;;;;5051278;28;20035;-46
2022/09/18 04:25:27;;;;;;;8.52;3.72;;;6.40;99.90;;;;;;5049445;28;20063;-44
2022/09/18 04:27:53;;;;;;;8.27;4.25;;;6.40;99.90;;;;;;5048416;28;20033;-51
2022/09/18 04:30:19;;;;;;;4.75;3.20;;;6.50;99.90;;;;;;5050825;28;20013;-46
2022/09/18 04:32:44;;;;;;;6.30;3.95;;;6.50;99.90;;;;;;5050751;28;20025;-48
2022/09/18 04:35:11;;;;;;;5.97;3.40;;;6.60;99.90;;;;;;5050744;28;20369;-48
2022/09/18 04:37:36;;;;;;;7.78;3.85;;;6.60;99.90;;;;;;5050028;28;20025;-52
2022/09/18 04:40:04;;;;;;;7.82;3.55;;;6.70;99.90;;;;;;5048136;28;20464;-49
2022/09/18 04:42:30;;;;;;;5.95;3.47;;;6.70;99.90;;;;;;5049987;28;20032;-48
2022/09/18 04:44:55;;;;;;;9.75;3.65;;;6.70;99.90;;;;;;5049782;28;20155;-48
2022/09/18 04:47:21;;;;;;;5.63;3.55;;;6.70;99.90;;;;;;5047859;28;20139;-44
2022/09/18 04:49:47;;;;;;;7.57;3.72;;;6.60;99.90;;;;;;5050636;28;20106;-44
2022/09/18 04:52:12;;;;;;;6.40;3.63;;;6.70;99.90;;;;;;5050349;28;20166;-44
2022/09/18 04:54:38;;;;;;;8.35;3.95;;;6.70;99.90;;;;;;5046045;28;20043;-45
2022/09/18 04:57:04;;;;;;;6.88;3.55;;;6.60;99.90;;;;;;5050736;28;20116;-47
2022/09/18 04:59:29;;;;;;;7.00;3.65;;;6.60;99.90;;;;;;5050473;28;20017;-47
2022/09/18 05:01:55;;;;;;;8.30;3.60;;;6.60;99.90;;;;;;5050677;28;20032;-44
2022/09/18 05:04:21;;;;;;;8.40;3.63;;;6.60;99.90;;;;;;5048496;28;20099;-47
2022/09/18 05:06:47;;;;;;;6.45;3.63;;;6.60;99.90;;;;;;5050474;28;20391;-44
2022/09/18 05:09:13;;;;;;;6.85;3.47;;;6.60;99.90;;;;;;5050415;28;20029;-44
2022/09/18 05:11:39;;;;;;;5.50;3.25;;;6.60;99.90;;;;;;5050227;28;20112;-50
2022/09/18 05:14:04;;;;;;;5.95;3.58;;;6.60;99.90;;;;;;5050650;28;20464;-49
2022/09/18 05:16:30;;;;;;;6.55;3.63;;;6.60;99.90;;;;;;5050472;28;20092;-44
2022/09/18 05:18:56;;;;;;;7.13;3.60;;;6.60;99.90;;;;;;5050297;28;20116;-46
2022/09/18 05:21:22;;;;;;;7.38;3.80;;;6.60;99.90;;;;;;5050156;28;20418;-45
2022/09/18 05:23:47;;;;;;;11.20;5.43;;;6.60;99.90;;;;;;5050386;28;20483;-46
2022/09/18 05:26:13;;;;;;;8.07;3.47;;;6.60;99.90;;;;;;5048796;28;20096;-45
2022/09/18 05:28:40;;;;;;;8.10;3.55;;;6.60;99.90;;;;;;5051435;28;20032;-44
2022/09/18 05:31:06;;;;;;;7.93;3.40;;;6.60;99.90;;;;;;5051407;28;20151;-44
2022/09/18 05:33:31;;;;;;;7.68;3.60;;;6.70;99.90;;;;;;5052309;28;20039;-44
2022/09/18 05:35:58;;;;;;;8.18;3.83;;;6.60;99.90;;;;;;5051101;28;20025;-48
2022/09/18 05:38:25;;;;;;;6.32;4.03;;;6.70;99.90;;;;;;5050541;28;20464;-49
2022/09/18 05:40:50;;;;;;;6.25;3.47;;;6.60;99.90;;;;;;5050207;28;20025;-47
2022/09/18 05:43:17;;;;;;;7.18;3.65;;;6.60;99.90;;;;;;5050441;28;20029;-46
2022/09/18 05:45:42;;;;;;;6.90;3.25;;;6.50;99.90;;;;;;5050335;28;20036;-48
2022/09/18 05:48:11;;;;;;;6.72;4.10;;;6.50;99.90;;;;;;5050314;28;20041;-48
2022/09/18 05:50:37;;;;;;;5.47;3.58;;;6.50;99.90;;;;;;5050474;28;20033;-49
2022/09/18 05:53:06;;;;;;;5.90;3.20;;;6.50;99.90;;;;;;5050660;28;20035;-47
2022/09/18 05:55:32;;;;;;;;;;;6.40;99.90;;;;;;5049563;28;20112;-46
2022/09/18 05:57:59;;;;;;;6.93;3.47;;;6.30;99.90;;;;;;5050528;28;20011;-52
2022/09/18 06:00:27;;;;;;;7.00;3.25;;;6.30;99.90;;;;;;5050453;28;20035;-50
2022/09/18 06:03:03;;;;;;;7.40;3.92;;;6.30;99.90;;;;;;5049918;28;20033;-44
2022/09/18 06:05:30;;;;;;;8.02;3.40;;;6.20;99.90;;;;;;5050113;28;20543;-46
2022/09/18 06:08:00;;;;;;;6.85;3.13;;;6.30;99.90;;;;;;5053502;28;20403;-49
2022/09/18 06:10:27;;;;;;;5.47;2.70;;;6.30;99.90;;;;;;5053803;28;20375;-47
2022/09/18 06:13:04;;;;;;;6.32;3.55;;;6.40;99.90;;;;;;5053313;28;20170;-51
2022/09/18 06:15:30;;;;;;;5.97;3.03;;;6.40;99.90;;;;;;5053913;28;20044;-46
2022/09/18 06:17:55;;;;;;;6.25;3.53;;;6.50;99.90;;;;;;5053580;28;20021;-47
2022/09/18 06:20:21;;;;;;;5.65;2.95;;;6.50;99.90;;;;;;5053752;28;20083;-45
2022/09/18 06:22:47;;;;;;;5.65;3.38;;;6.60;99.90;;;;;;5053174;28;20029;-46
2022/09/18 06:25:15;;;;;;;9.85;3.47;;;6.60;99.90;;;;;;5053326;28;20017;-44
2022/09/18 06:27:41;;;;;;;9.07;3.35;;;6.60;99.90;;;;;;5053237;28;20061;-54
2022/09/18 06:30:07;;;;;;;7.25;3.38;;;6.50;99.90;;;;;;5053053;28;20059;-46
2022/09/18 06:32:32;;;;;;;6.20;3.42;;;6.50;99.90;;;;;;5053493;28;20025;-44
2022/09/18 06:34:58;;;;;;;6.78;3.20;;;6.50;99.90;;;;;;5053197;28;20088;-45
2022/09/18 06:37:24;;;;;;;5.85;3.30;;;6.50;99.90;;;;;;5052998;28;20021;-48
2022/09/18 06:39:49;;;;;;;6.80;3.47;;;6.60;99.90;;;;;;5053008;28;20467;-48
2022/09/18 06:42:16;;;;;;;7.20;3.20;;;6.70;99.90;;;;;;5052711;28;20049;-48
2022/09/18 06:44:41;;;;;;;7.35;3.40;;;6.70;99.90;;;;;;5053144;28;20091;-48
2022/09/18 06:47:07;;;;;;;9.45;3.78;;;6.80;99.90;;;;;;5051551;28;20187;-44
2022/09/18 06:49:33;;;;;;;7.35;3.05;;;6.90;99.90;;;;;;5053035;28;20053;-44
2022/09/18 06:51:59;;;;;;;4.95;2.97;;;7.00;99.90;;;;;;5053089;28;20028;-51
2022/09/18 06:54:24;;;;;;;6.13;3.25;;;7.20;99.90;;;;;;5052703;28;20032;-47
2022/09/18 06:56:50;;;;;;;5.10;3.22;;;7.50;99.90;;;;;;5052701;28;20458;-49
2022/09/18 06:59:15;;;;;;;6.70;3.17;;;7.70;99.90;;;;;;5052668;28;20079;-44
2022/09/18 07:01:41;;;;;;;4.75;2.47;;;7.90;99.90;;;;;;5052841;28;20017;-44
2022/09/18 07:04:07;;;;;;;9.00;3.08;;;8.10;99.90;;;;;;5052639;28;20068;-45
2022/09/18 07:06:32;;;;;;;6.72;3.05;;;8.30;99.90;;;;;;5052381;28;20365;-44
2022/09/18 07:08:58;;;;;;;6.18;2.65;;;8.40;99.90;;;;;;5052613;28;20033;-44
2022/09/18 07:11:23;;;;;;;4.22;2.60;;;8.50;99.90;;;;;;5052190;28;20021;-44
2022/09/18 07:13:50;;;;;;;4.30;2.50;;;8.70;99.90;;;;;;5052463;28;20039;-44
2022/09/18 07:16:16;;;;;;;4.57;2.70;;;8.90;99.90;;;;;;5052442;28;20060;-45
2022/09/18 07:18:42;;;;;;;6.70;2.38;;;9.20;99.90;;;;;;5052061;28;20060;-53
2022/09/18 07:21:08;;;;;;;4.90;2.20;;;9.40;99.90;;;;;;5052124;28;20379;-56
2022/09/18 07:23:34;;;;;;;4.10;2.25;;;9.70;99.90;;;;;;5052318;28;20103;-48
2022/09/18 07:26:01;;;;;;;3.45;1.80;;;10.00;99.90;;;;;;5052346;28;20029;-50
2022/09/18 07:28:27;;;;;;;3.30;2.03;;;10.50;99.90;;;;;;5051971;28;20037;-47
2022/09/18 07:30:53;;;;;;;4.35;2.00;;;10.90;99.90;;;;;;5052318;28;20027;-46
2022/09/18 07:33:18;;;;;;;5.13;1.90;;;11.20;99.90;;;;;;5051933;28;20053;-48
2022/09/18 07:35:44;;;;;;;3.45;1.90;;;11.50;99.90;;;;;;5052066;28;20047;-46
2022/09/18 07:38:10;;;;;;;4.13;2.10;;;11.70;99.90;;;;;;5051955;28;20075;-47
2022/09/18 07:40:36;;;;;;;6.55;1.77;;;11.90;99.90;;;;;;5051614;28;20021;-46
2022/09/18 07:43:05;;;;;;;5.10;1.77;;;12.00;99.90;;;;;;5051964;28;20447;-45
2022/09/18 07:45:31;;;;;;;3.15;1.77;;;12.30;99.90;;;;;;5051681;28;20060;-47
2022/09/18 07:48:01;;;;;;;3.78;1.67;;;12.70;99.90;;;;;;5051773;28;20501;-45
2022/09/18 07:50:26;;;;;;;5.13;2.17;;;13.20;99.90;;;;;;5051860;28;20078;-50
2022/09/18 07:52:55;;;;;;;5.88;2.05;;;14.00;99.90;;;;;;5051666;28;20029;-50
2022/09/18 07:55:23;;;;;;;3.50;1.50;;;14.70;99.90;;;;;;5051442;28;20522;-47
2022/09/18 07:57:54;;;;;;;4.50;1.45;;;15.20;99.90;;;;;;5051399;28;20496;-51
2022/09/18 08:00:20;;;;;;;2.92;1.40;;;15.80;99.90;;;;;;5046699;28;20472;-52
2022/09/18 08:02:46;;;;;;;2.20;1.35;;;16.30;99.90;;;;;;5047834;28;20027;-45
2022/09/18 08:05:12;;;;;;;3.20;1.23;;;17.00;99.90;;;;;;5051396;28;20021;-45
2022/09/18 08:07:37;;;;;;;3.95;1.42;;;17.70;99.90;;;;;;5051355;28;20390;-48
2022/09/18 08:10:04;;;;;;;3.03;1.45;;;18.40;99.80;;;;;;5051222;28;20037;-45
2022/09/18 08:12:30;;;;;;;2.45;1.27;;;18.90;99.20;;;;;;5047132;28;20025;-45
2022/09/18 08:14:57;;;;;;;3.35;1.40;;;19.40;96.40;;;;;;5049380;28;20049;-52
2022/09/18 08:17:24;;;;;;;3.03;1.63;;;20.10;96.70;;;;;;5035308;28;20061;-43
2022/09/18 08:19:49;;;;;;;2.17;1.30;;;20.80;94.40;;;;;;5049955;28;20024;-43
2022/09/18 08:22:15;;;;;;;4.60;1.50;;;21.00;93.10;;;;;;5051303;28;20384;-48
2022/09/18 08:24:41;;;;;;;3.25;1.50;;;21.00;91.90;;;;;;5041941;28;20024;-46
2022/09/18 08:27:07;;;;;;;1.88;1.25;;;21.10;92.20;;;;;;5039163;28;20480;-48
2022/09/18 08:29:32;;;;;;;3.60;1.35;;;21.70;90.50;;;;;;5041460;28;20045;-48
2022/09/18 08:31:58;;;;;;;2.72;1.40;;;22.30;90.90;;;;;;5050049;28;20025;-46
2022/09/18 08:34:24;;;;;;;6.70;1.55;;;22.80;88.80;;;;;;5050782;28;20040;-46
2022/09/18 08:36:49;;;;;;;3.45;1.50;;;23.50;86.20;;;;;;5048232;28;20032;-49
2022/09/18 08:39:15;;;;;;;2.60;1.50;;;24.00;82.70;;;;;;5048308;28;20044;-48
2022/09/18 08:42:10;;;;;;;3.05;1.20;;;24.30;80.80;;;;;;5045606;28;20021;-50
2022/09/18 08:44:50;;;;;;;2.58;1.40;;;24.10;76.80;;;;;;5047211;28;20040;-50
2022/09/18 08:48:00;;;;;;;2.75;1.38;;;24.10;77.90;;;;;;5040710;28;20076;-49
2022/09/18 08:50:35;;;;;;;2.75;1.25;;;24.20;79.10;;;;;;5049737;28;20436;-50
2022/09/18 08:53:10;;;;;;;2.58;1.23;;;24.00;77.50;;;;;;5050271;28;20021;-49
2022/09/18 08:55:39;;;;;;;2.80;1.08;;;24.20;78.00;;;;;;5050620;28;20025;-49
2022/09/18 08:58:16;;;;;;;1.92;1.13;;;24.50;76.80;;;;;;5048075;28;20021;-47
2022/09/18 09:00:47;;;;;;;4.47;1.23;;;24.40;75.30;;;;;;5044337;28;20059;-47
2022/09/18 09:03:15;;;;;;;1.38;0.68;;;24.20;75.60;;;;;;5049150;28;20029;-48
2022/09/18 09:05:58;;;;;;;3.05;1.08;;;24.30;75.90;;;;;;5048858;28;20537;-45
2022/09/18 09:08:35;;;;;;;2.95;0.65;;;24.20;76.60;;;;;;5048677;28;20091;-47
2022/09/18 09:11:07;;;;;;;2.75;1.00;;;24.80;76.60;;;;;;5040488;28;20021;-46
2022/09/18 09:13:48;;;;;;;1.25;0.80;;;25.40;74.00;;;;;;5048456;28;20021;-46
2022/09/18 09:16:24;;;;;;;3.20;0.90;;;25.90;73.00;;;;;;5045564;28;20021;-46
2022/09/18 09:19:27;;;;;;;2.65;0.93;;;25.70;71.00;;;;;;5043287;28;20044;-47
2022/09/18 09:22:12;;;;;;;1.83;0.80;;;26.00;70.30;;;;;;5047735;28;20075;-49
2022/09/18 09:25:05;;;;;;;4.80;0.80;;;26.10;71.80;;;;;;5049423;28;20048;-46
2022/09/18 09:27:43;;;;;;;4.93;0.93;;;26.00;68.60;;;;;;5047516;28;20029;-46
2022/09/18 09:30:18;;;;;;;2.47;0.90;;;26.40;67.30;;;;;;5048437;28;20120;-51
2022/09/18 09:32:55;;;;;;;4.07;1.27;;;26.70;67.30;;;;;;5043581;28;20029;-46
2022/09/18 09:35:26;;;;;;;1.77;0.70;;;27.10;67.60;;;;;;5046927;28;20021;-46
2022/09/18 09:37:52;;;;;;;3.50;0.90;;;27.40;66.30;;;;;;5040841;28;20037;-46
2022/09/18 09:40:31;;;;;;;2.17;0.90;;;27.90;66.70;;;;;;5043933;28;20672;-46
2022/09/18 09:43:21;;;;;;;3.00;0.80;;;28.10;65.10;;;;;;5053396;28;20032;-46
2022/09/18 09:45:50;;;;;;;2.20;0.77;;;28.30;63.00;;;;;;5049509;28;20649;-46
2022/09/18 09:48:28;;;;;;;;;;;29.00;63.90;;;;;;5047517;28;20033;-48
2022/09/18 09:51:23;;;;;;;2.85;0.93;;;28.80;61.50;;;;;;5050559;28;19905;-52
2022/09/18 09:53:54;;;;;;;4.50;0.90;;;28.70;59.00;;;;;;5043567;28;20547;-51
2022/09/18 09:56:35;;;;;;;2.28;0.80;;;27.90;63.60;;;;;;5043633;28;20094;-46
2022/09/18 09:59:19;;;;;;;2.50;0.88;;;27.00;61.00;;;;;;5045012;28;20116;-46
2022/09/18 10:01:56;;;;;;;2.35;0.82;;;26.30;62.10;;;;;;5048614;28;20484;-50
2022/09/18 10:04:52;;;;;;;1.98;0.70;;;25.90;64.20;;;;;;5052178;28;20048;-47
2022/09/18 10:07:24;;;;;;;1.13;0.65;;;26.00;64.80;;;;;;5022458;28;20049;-49
2022/09/18 10:10:12;;;;;;;2.47;0.90;;;27.10;58.70;;;;;;5047591;28;20066;-51
2022/09/18 10:12:51;;;;;;;3.63;0.88;;;27.20;61.60;;;;;;5046057;28;20028;-46
2022/09/18 10:15:38;;;;;;;2.00;0.70;;;28.00;59.00;;;;;;5050336;28;20021;-46
2022/09/18 10:18:10;;;;;;;1.85;0.77;;;29.50;59.20;;;;;;5051649;28;20124;-46
2022/09/18 10:20:36;;;;;;;1.63;0.70;;;29.40;56.70;;;;;;5053503;28;20531;-46
2022/09/18 10:23:10;;;;;;;3.85;0.70;;;28.70;56.30;;;;;;5053426;28;20029;-47
2022/09/18 10:25:53;;;;;;;2.88;0.73;;;28.10;54.00;;;;;;5053061;28;20068;-47
2022/09/18 10:28:20;;;;;;;1.88;0.60;;;28.00;55.70;;;;;;5053002;28;20025;-45
2022/09/18 10:31:01;;;;;;;2.30;0.68;;;28.60;55.50;;;;;;5053115;28;20024;-46
2022/09/18 10:33:35;;;;;;;1.67;0.70;;;28.10;51.40;;;;;;5051827;28;20031;-46
2022/09/18 10:36:27;;;;;;;2.17;0.63;;;29.00;54.30;;;;;;5053043;28;20051;-46
2022/09/18 10:38:53;;;;;;;2.05;0.82;;;29.20;53.60;;;;;;5052874;28;20518;-46
2022/09/18 10:41:37;;;;;;;2.25;0.73;;;29.20;54.60;;;;;;5053334;28;20029;-49
2022/09/18 10:44:06;;;;;;;1.10;0.70;;;29.40;54.90;;;;;;5052862;28;20511;-46
2022/09/18 10:46:34;;;;;;;2.72;0.70;;;29.20;52.80;;;;;;5053190;28;20048;-49
2022/09/18 10:49:33;;;;;;;2.35;0.77;;;29.30;55.40;;;;;;5053038;28;20037;-47
2022/09/18 10:52:20;;;;;;;2.58;1.13;;;29.30;52.00;;;;;;5052430;28;20078;-46
2022/09/18 10:55:08;;;;;;;1.65;0.60;;;27.90;54.10;;;;;;5052807;28;20027;-49
2022/09/18 10:57:59;;;;;;;0.73;0.60;;;27.70;57.60;;;;;;5048245;28;20067;-50
2022/09/18 11:00:25;;;;;;;2.90;0.60;;;27.70;53.60;;;;;;5050351;28;20036;-46
2022/09/18 11:03:16;;;;;;;4.82;0.85;;;27.90;56.50;;;;;;5046259;28;20032;-47
2022/09/18 11:05:58;;;;;;;1.67;0.60;;;28.20;58.30;;;;;;5044796;28;20032;-46
2022/09/18 11:08:32;;;;;;;1.75;0.60;;;28.00;55.90;;;;;;5046588;28;20037;-48
2022/09/18 11:11:05;;;;;;;2.40;0.60;;;28.00;55.40;;;;;;5048171;28;20059;-46
2022/09/18 11:13:32;;;;;;;1.83;0.70;;;27.60;54.60;;;;;;5039694;28;20025;-46
2022/09/18 11:16:02;;;;;;;2.92;0.80;;;26.90;55.50;;;;;;5049772;28;20021;-50
2022/09/18 11:18:30;;;;;;;3.05;0.85;;;26.90;55.80;;;;;;5049897;28;20057;-46
2022/09/18 11:20:59;;;;;;;1.73;0.70;;;26.60;55.90;;;;;;5049906;28;20147;-46
2022/09/18 11:23:26;;;;;;;2.15;0.70;;;26.30;55.90;;;;;;5049211;28;20025;-46
2022/09/18 11:26:09;;;;;;;1.55;0.57;;;25.50;55.10;;;;;;5044709;28;20102;-51
2022/09/18 11:28:34;;;;;;;1.58;0.60;;;24.90;61.20;;;;;;5050582;28;20739;-46
2022/09/18 11:31:14;;;;;;;0.93;0.60;;;24.90;58.80;;;;;;5048958;28;20059;-45
2022/09/18 11:33:52;;;;;;;1.42;0.60;;;25.00;57.20;;;;;;5050373;28;20064;-45
2022/09/18 11:36:24;;;;;;;1.23;0.55;;;25.00;58.30;;;;;;5048725;28;20020;-45
2022/09/18 11:38:51;;;;;;;3.15;0.75;;;25.20;61.20;;;;;;5050397;28;20039;-47
2022/09/18 11:41:35;;;;;;;1.77;0.73;;;25.50;60.10;;;;;;5047723;28;20029;-44
2022/09/18 11:44:13;;;;;;;1.13;0.50;;;25.50;58.70;;;;;;5045156;28;20112;-45
2022/09/18 11:46:57;;;;;;;1.52;0.70;;;25.30;56.50;;;;;;5041769;28;20049;-48
2022/09/18 11:49:36;;;;;;;2.78;0.77;;;25.60;54.10;;;;;;5035675;28;20056;-47
2022/09/18 11:52:16;;;;;;;1.58;0.55;;;25.80;58.20;;;;;;5048192;28;20141;-50
2022/09/18 11:54:58;;;;;;;2.42;0.50;;;25.80;58.80;;;;;;5048500;28;20036;-48
2022/09/18 11:57:31;;;;;;;0.98;0.50;;;26.00;57.90;;;;;;5056969;28;20139;-50
2022/09/18 12:00:04;;;;;;;1.52;0.63;;;25.80;60.60;;;;;;5050728;28;20033;-47
2022/09/18 12:02:47;;;;;;;1.77;0.60;;;26.20;57.30;;;;;;5051342;28;20032;-54
2022/09/18 12:05:21;;;;;;;2.80;0.63;;;26.00;56.90;;;;;;5050661;28;20495;-53
2022/09/18 12:07:47;;;;;;;2.30;0.70;;;26.30;54.50;;;;;;5047042;28;20065;-52
2022/09/18 12:10:28;;;;;;;3.13;0.77;;;26.10;53.70;;;;;;5051688;28;20025;-52
2022/09/18 12:13:45;;;;;;;2.55;0.90;;;26.60;54.20;;;;;;5056970;28;20086;-47
2022/09/18 12:16:20;;;;;;;1.48;0.70;;;25.40;56.00;;;;;;5034471;28;20071;-45
2022/09/18 12:18:54;;;;;;;2.10;0.73;;;24.80;56.40;;;;;;5039483;28;20519;-48
2022/09/18 12:21:27;;;;;;;1.65;0.70;;;25.20;57.60;;;;;;5048004;28;20031;-49
2022/09/18 12:23:53;;;;;;;2.70;0.63;;;25.60;57.10;;;;;;5045815;28;20052;-44
2022/09/18 12:26:42;;;;;;;2.08;0.73;;;24.40;55.70;;;;;;5047361;28;20488;-48
2022/09/18 12:29:21;;;;;;;1.38;0.50;;;23.60;58.30;;;;;;5048525;28;20094;-45
2022/09/18 12:32:03;;;;;;;1.30;0.80;;;23.10;57.50;;;;;;5049996;28;20440;-45
2022/09/18 12:34:34;;;;;;;1.42;0.70;;;22.60;60.60;;;;;;5048533;28;20040;-45
2022/09/18 12:37:05;;;;;;;2.50;0.80;;;22.20;64.40;;;;;;5048554;28;20013;-45
2022/09/18 12:39:50;;;;;;;1.00;0.50;;;21.90;67.40;;;;;;5051754;28;20033;-47
2022/09/18 12:42:28;;;;;;;1.17;0.50;;;21.70;67.50;;;;;;5052467;28;20192;-46
2022/09/18 12:45:22;;;;;;;0.98;0.50;;;21.50;65.90;;;;;;5054642;28;20103;-52
2022/09/18 12:48:02;;;;;;;2.17;0.80;;;21.40;65.20;;;;;;5045760;28;20125;-45
2022/09/18 12:50:45;;;;;;;1.45;0.70;;;21.80;64.90;;;;;;5054660;28;20029;-44
2022/09/18 12:53:24;;;;;;;2.13;0.60;;;22.20;67.40;;;;;;5050380;28;20040;-46
2022/09/18 12:56:06;;;;;;;2.75;0.68;;;22.30;66.40;;;;;;5048889;28;20029;-45
2022/09/18 12:59:19;;;;;;;1.05;0.63;;;21.90;62.40;;;;;;5049398;28;20047;-45
2022/09/18 13:01:55;;;;;;;1.85;0.88;;;21.80;65.10;;;;;;5048876;28;20024;-45
2022/09/18 13:04:31;;;;;;;1.08;0.65;;;21.70;64.80;;;;;;5050310;28;20040;-45
2022/09/18 13:07:32;;;;;;;3.20;1.08;;;21.70;66.50;;;;;;5051259;28;20032;-48
2022/09/18 13:10:22;;;;;;;1.20;0.60;;;21.80;66.30;;;;;;5045131;28;20033;-47
2022/09/18 13:13:01;;;;;;;1.77;0.80;;;21.50;66.20;;;;;;5046594;28;20108;-50
2022/09/18 13:15:49;;;;;;;3.73;0.73;;;21.30;65.30;;;;;;5043191;28;20100;-45
2022/09/18 13:18:33;;;;;;;1.77;0.63;;;21.30;66.50;;;;;;5054030;28;20276;-47